Time;durP1;ratioP1;P1;durP2;ratioP2;P2;SDS_P1;SDS_P2;PMS_P1;PMS_P2;Temp;Humidity;BMP_temperature;BMP_pressure;BME280_temperature;BME280_humidity;BME280_pressure;Samples;Min_cycle;Max_cycle;Signal;HPM_P1;HPM_P2
2023/05/14 00:00:40;;;;;;;4.07;2.60;;;;;;;12.95;nan;60982.84;4991373;28;20759;-68
2023/05/14 00:03:05;;;;;;;3.85;2.97;;;;;;;13.01;nan;60994.72;4976322;28;20520;-71
2023/05/14 00:05:30;;;;;;;3.50;2.55;;;;;;;13.12;nan;61017.97;4976306;28;20365;-71
2023/05/14 00:07:56;;;;;;;3.40;2.70;;;;;;;13.10;nan;61008.00;4976250;28;20664;-70
2023/05/14 00:10:21;;;;;;;3.47;2.72;;;;;;;13.10;nan;60984.91;4976284;28;20235;-71
2023/05/14 00:12:47;;;;;;;3.63;2.60;;;;;;;12.88;nan;60965.25;4975907;28;20270;-70
2023/05/14 00:15:12;;;;;;;3.25;2.58;;;;;;;13.21;nan;61022.41;4976267;28;20177;-71
2023/05/14 00:17:38;;;;;;;4.35;2.60;;;;;;;13.25;nan;60980.75;4976570;28;20712;-70
2023/05/14 00:20:06;;;;;;;2.80;2.50;;;;;;;13.01;nan;61010.09;4976523;28;20228;-69
2023/05/14 00:22:32;;;;;;;3.08;2.60;;;;;;;12.97;nan;61029.25;4980542;28;20174;-70
2023/05/14 00:24:57;;;;;;;5.03;2.85;;;;;;;12.85;nan;60951.63;4976112;28;20240;-69
2023/05/14 00:27:23;;;;;;;4.15;2.75;;;;;;;13.10;nan;61025.38;4990600;28;20297;-69
2023/05/14 00:29:48;;;;;;;4.10;2.63;;;;;;;12.80;nan;61197.75;4973951;28;20189;-71
2023/05/14 00:32:14;;;;;;;3.92;2.53;;;;;;;13.01;nan;61015.22;4975179;28;20657;-70
2023/05/14 00:34:39;;;;;;;4.38;2.70;;;;;;;12.74;nan;60944.38;4975223;28;20173;-70
2023/05/14 00:37:04;;;;;;;3.17;2.45;;;;;;;12.94;nan;61013.03;4975601;28;20336;-69
2023/05/14 00:39:30;;;;;;;2.85;2.50;;;;;;;12.97;nan;61000.47;4975536;28;20177;-71
2023/05/14 00:41:55;;;;;;;6.47;2.80;;;;;;;13.08;nan;61016.00;4974922;28;20650;-70
2023/05/14 00:44:20;;;;;;;2.88;2.20;;;;;;;13.24;nan;61048.88;4975387;28;20177;-69
2023/05/14 00:46:46;;;;;;;3.42;2.33;;;;;;;13.23;nan;61030.34;4975433;28;20288;-70
2023/05/14 00:49:12;;;;;;;2.67;2.35;;;;;;;12.92;nan;60894.84;4975090;28;20629;-71
2023/05/14 00:51:38;;;;;;;3.92;2.40;;;;;;;13.25;nan;61024.34;4990192;28;20558;-70
2023/05/14 00:54:05;;;;;;;2.90;2.35;;;;;;;13.03;nan;60989.28;4975237;28;20174;-70
2023/05/14 00:56:30;;;;;;;3.45;2.28;;;;;;;13.01;nan;60928.06;4974597;28;20678;-70
2023/05/14 00:58:56;;;;;;;3.28;2.40;;;;;;;13.16;nan;61040.44;4974360;28;20267;-69
2023/05/14 01:01:21;;;;;;;3.97;2.50;;;;;;;12.95;nan;60982.84;4976083;28;20219;-71
2023/05/14 01:03:47;;;;;;;3.58;2.42;;;;;;;12.90;nan;60974.66;4975651;28;20558;-70
2023/05/14 01:06:12;;;;;;;4.43;2.60;;;;;;;13.25;nan;60978.19;4975508;28;20197;-71
2023/05/14 01:09:00;;;;;;;5.35;3.00;;;;;;;13.21;nan;61020.41;4975305;28;20556;-71
2023/05/14 01:11:31;;;;;;;4.05;2.45;;;;;;;13.10;nan;60979.78;4975901;28;20569;-69
2023/05/14 01:14:03;;;;;;;5.03;3.00;;;;;;;13.16;nan;61004.53;4975134;28;20181;-70
2023/05/14 01:16:32;;;;;;;3.30;2.30;;;;;;;13.23;nan;61030.34;4975143;28;20184;-69
2023/05/14 01:18:59;;;;;;;3.45;2.72;;;;;;;13.18;nan;60990.81;4990279;28;20177;-70
2023/05/14 01:21:39;;;;;;;3.42;2.50;;;;;;;12.69;nan;60949.00;4979460;28;20728;-70
2023/05/14 01:24:07;;;;;;;3.67;2.50;;;;;;;13.04;nan;61011.47;4975076;28;20181;-71
2023/05/14 01:26:32;;;;;;;3.83;2.50;;;;;;;13.01;nan;61035.75;4975131;28;20215;-70
2023/05/14 01:29:17;;;;;;;3.50;2.53;;;;;;;12.63;nan;60958.16;4974501;28;20173;-70
2023/05/14 01:31:45;;;;;;;3.15;2.40;;;;;;;13.00;nan;61014.66;4989775;28;20174;-69
2023/05/14 01:34:13;;;;;;;2.83;2.50;;;;;;;12.55;nan;60951.16;4974788;28;20177;-70
2023/05/14 01:36:40;;;;;;;3.75;2.70;;;;;;;12.91;nan;60989.13;4974469;28;20174;-70
2023/05/14 01:39:08;;;;;;;3.63;2.70;;;;;;;12.73;nan;60950.94;4974654;28;20645;-70
2023/05/14 01:41:36;;;;;;;2.30;1.98;;;;;;;12.66;nan;60935.94;4975256;28;20268;-70
2023/05/14 01:44:02;;;;;;;3.67;2.60;;;;;;;12.67;nan;60990.84;4974630;28;20253;-70
2023/05/14 01:46:31;;;;;;;3.40;2.50;;;;;;;12.57;nan;60956.53;4974273;28;20193;-70
2023/05/14 01:48:56;;;;;;;4.50;2.72;;;;;;;12.83;nan;60980.13;4974495;28;20276;-69
2023/05/14 01:51:22;;;;;;;4.55;2.70;;;;;;;12.55;nan;60963.97;4974302;28;20740;-70
2023/05/14 01:53:47;;;;;;;3.58;2.85;;;;;;;12.83;nan;61005.75;4973284;28;20188;-70
2023/05/14 01:56:13;;;;;;;3.38;2.45;;;;;;;12.92;nan;61215.88;4974219;28;20170;-72
2023/05/14 01:58:38;;;;;;;4.05;2.53;;;;;;;12.58;nan;60952.53;4974364;28;20173;-70
2023/05/14 02:01:03;;;;;;;4.95;3.25;;;;;;;12.75;nan;61222.88;4974122;28;20271;-71
2023/05/14 02:03:29;;;;;;;4.43;2.70;;;;;;;12.86;nan;61009.13;4988748;28;20200;-70
2023/05/14 02:05:54;;;;;;;5.75;3.40;;;;;;;12.61;nan;60968.72;4988949;28;20236;-70
2023/05/14 02:08:20;;;;;;;3.95;2.67;;;;;;;12.56;nan;60983.59;4974192;28;20181;-70
2023/05/14 02:10:45;;;;;;;3.88;2.60;;;;;;;12.39;nan;60923.47;4974114;28;20360;-69
2023/05/14 02:13:11;;;;;;;5.65;2.88;;;;;;;12.12;nan;60905.84;4973874;28;20647;-70
2023/05/14 02:15:37;;;;;;;3.22;2.63;;;;;;;12.35;nan;60906.72;4988987;28;20184;-71
2023/05/14 02:18:02;;;;;;;3.42;2.63;;;;;;;12.56;nan;60924.66;4976170;28;20182;-70
2023/05/14 02:20:28;;;;;;;3.70;2.60;;;;;;;12.13;nan;60950.50;4990509;28;20195;-68
2023/05/14 02:22:54;;;;;;;2.92;2.42;;;;;;;12.10;nan;60924.66;4977298;28;20216;-70
2023/05/14 02:25:19;;;;;;;7.30;2.63;;;;;;;12.47;nan;60939.59;4988865;28;20565;-72
2023/05/14 02:27:45;;;;;;;3.35;2.42;;;;;;;12.38;nan;60945.97;4972445;28;20316;-70
2023/05/14 02:30:11;;;;;;;7.40;2.45;;;;;;;12.20;nan;60904.63;4973808;28;20621;-70
2023/05/14 02:32:36;;;;;;;3.58;2.40;;;;;;;11.97;nan;60889.00;4988350;28;20177;-70
2023/05/14 02:35:02;;;;;;;5.70;2.88;;;;;;;11.93;nan;60888.16;4974102;28;20183;-71
2023/05/14 02:37:27;;;;;;;3.08;2.50;;;;;;;12.25;nan;60897.47;4973893;28;20174;-70
2023/05/14 02:39:53;;;;;;;3.25;2.40;;;;;;;12.14;nan;60915.81;4974006;28;20213;-69
2023/05/14 02:42:18;;;;;;;5.28;2.90;;;;;;;12.05;nan;60906.22;4973147;28;20264;-70
2023/05/14 02:44:43;;;;;;;2.63;2.33;;;;;;;12.16;nan;60851.50;4973520;28;20184;-69
2023/05/14 02:47:09;;;;;;;3.60;2.70;;;;;;;12.34;nan;60949.13;4988307;28;20608;-69
2023/05/14 02:49:34;;;;;;;3.13;2.45;;;;;;;12.25;nan;60912.81;4973899;28;20268;-72
2023/05/14 02:51:59;;;;;;;4.30;2.88;;;;;;;11.91;nan;60893.03;4973650;28;20173;-70
2023/05/14 02:54:25;;;;;;;5.60;2.92;;;;;;;12.31;nan;60943.19;4975447;28;20249;-69
2023/05/14 02:56:51;;;;;;;5.93;2.55;;;;;;;12.21;nan;60895.50;4973346;28;20663;-70
2023/05/14 02:59:16;;;;;;;3.35;2.50;;;;;;;12.53;nan;60956.59;4973469;28;20182;-71
2023/05/14 03:01:42;;;;;;;6.80;3.17;;;;;;;12.32;nan;60928.38;4973140;28;20248;-70
2023/05/14 03:04:07;;;;;;;3.33;2.63;;;;;;;12.29;nan;60946.06;4973842;28;20177;-70
2023/05/14 03:06:32;;;;;;;5.72;3.10;;;;;;;12.13;nan;60925.47;4973118;28;20204;-70
2023/05/14 03:08:58;;;;;;;3.63;2.60;;;;;;;12.40;nan;60955.31;4972836;28;20260;-70
2023/05/14 03:11:24;;;;;;;3.83;2.80;;;;;;;12.57;nan;60973.91;4975416;28;20311;-71
2023/05/14 03:13:49;;;;;;;3.85;2.42;;;;;;;12.38;nan;60935.16;4973035;28;20619;-70
2023/05/14 03:16:15;;;;;;;4.43;2.67;;;;;;;12.59;nan;60971.59;4972689;28;20626;-71
2023/05/14 03:18:40;;;;;;;4.35;2.75;;;;;;;12.50;nan;60953.22;4973178;28;20562;-71
2023/05/14 03:21:07;;;;;;;5.40;2.22;;;;;;;12.26;nan;60934.41;4976714;28;20181;-69
2023/05/14 03:23:33;;;;;;;4.85;2.97;;;;;;;12.21;nan;61121.41;4980900;28;20177;-70
2023/05/14 03:25:59;;;;;;;4.38;2.83;;;;;;;12.47;nan;60932.47;4979654;28;20193;-71
2023/05/14 03:28:25;;;;;;;4.15;2.80;;;;;;;12.27;nan;60933.56;4979316;28;20173;-69
2023/05/14 03:30:51;;;;;;;7.43;2.90;;;;;;;12.64;nan;60994.59;4979317;28;20173;-71
2023/05/14 03:33:16;;;;;;;4.07;2.50;;;;;;;12.68;nan;60988.84;4979237;28;20180;-71
2023/05/14 03:35:41;;;;;;;5.03;3.22;;;;;;;12.70;nan;60991.13;4979331;28;20556;-70
2023/05/14 03:38:07;;;;;;;5.40;3.10;;;;;;;12.67;nan;60957.53;4979424;28;20185;-71
2023/05/14 03:40:32;;;;;;;6.40;2.80;;;;;;;12.78;nan;60969.38;4979311;28;20184;-70
2023/05/14 03:42:58;;;;;;;5.88;3.03;;;;;;;12.73;nan;60969.44;4998860;28;20185;-69
2023/05/14 03:45:23;;;;;;;10.57;2.83;;;;;;;12.43;nan;60914.59;4977908;28;20192;-70
2023/05/14 03:47:49;;;;;;;3.00;2.38;;;;;;;12.87;nan;60994.91;4979251;28;20300;-69
2023/05/14 03:50:14;;;;;;;4.13;2.88;;;;;;;12.69;nan;60979.75;4979307;28;20200;-70
2023/05/14 03:52:39;;;;;;;4.53;2.67;;;;;;;12.39;nan;60947.06;4979522;28;20177;-69
2023/05/14 03:55:05;;;;;;;3.42;2.50;;;;;;;12.51;nan;61028.63;4979227;28;20612;-71
2023/05/14 03:57:31;;;;;;;3.85;2.63;;;;;;;12.72;nan;61252.78;4979346;28;20177;-70
2023/05/14 03:59:56;;;;;;;3.92;2.67;;;;;;;12.62;nan;60980.13;4992470;28;20212;-69
2023/05/14 04:02:21;;;;;;;4.03;2.75;;;;;;;12.64;nan;60992.03;4978638;28;20169;-71
2023/05/14 04:04:47;;;;;;;3.88;2.88;;;;;;;12.52;nan;60929.84;4993846;28;20188;-72
2023/05/14 04:07:12;;;;;;;7.50;2.85;;;;;;;12.25;nan;60930.75;4981036;28;20260;-71
2023/05/14 04:09:38;;;;;;;3.22;2.50;;;;;;;12.59;nan;61040.78;4978557;28;20196;-70
2023/05/14 04:12:03;;;;;;;4.55;2.67;;;;;;;12.52;nan;60970.84;4978696;28;20232;-71
2023/05/14 04:14:29;;;;;;;4.57;2.92;;;;;;;12.47;nan;60947.84;4993311;28;20711;-71
2023/05/14 04:16:54;;;;;;;4.00;2.90;;;;;;;12.45;nan;60957.81;4978746;28;20173;-69
2023/05/14 04:19:20;;;;;;;4.25;3.25;;;;;;;12.52;nan;60940.09;4978652;28;20170;-69
2023/05/14 04:21:45;;;;;;;5.82;3.50;;;;;;;12.56;nan;60975.34;4984616;28;20177;-71
2023/05/14 04:24:10;;;;;;;7.53;3.58;;;;;;;12.99;nan;61013.56;4993711;28;20177;-70
2023/05/14 04:26:36;;;;;;;6.70;3.95;;;;;;;12.90;nan;61026.47;4978399;28;20205;-69
2023/05/14 04:29:02;;;;;;;7.07;4.18;;;;;;;12.69;nan;61039.25;4978569;28;20177;-70
2023/05/14 04:31:28;;;;;;;8.30;3.53;;;;;;;13.11;nan;61019.41;4978742;28;20169;-72
2023/05/14 04:33:53;;;;;;;4.63;3.50;;;;;;;13.25;nan;61035.19;4974488;28;20177;-70
2023/05/14 04:36:19;;;;;;;4.72;3.25;;;;;;;13.62;nan;61058.38;4975824;28;20233;-71
2023/05/14 04:38:44;;;;;;;4.30;3.13;;;;;;;13.88;nan;61096.81;4990908;28;20260;-67
2023/05/14 04:41:10;;;;;;;7.40;3.42;;;;;;;14.28;nan;61120.84;4975566;28;20563;-67
2023/05/14 04:43:35;;;;;;;8.15;3.00;;;;;;;14.45;nan;61119.47;4975472;28;20185;-67
2023/05/14 04:46:01;;;;;;;4.90;3.03;;;;;;;14.64;nan;61166.63;4976119;28;20579;-70
2023/05/14 04:48:26;;;;;;;4.72;3.00;;;;;;;14.36;nan;61138.16;4983043;28;20601;-67
2023/05/14 04:50:52;;;;;;;5.03;3.00;;;;;;;14.51;nan;61167.38;4985993;28;20669;-68
2023/05/14 04:53:17;;;;;;;4.45;2.95;;;;;;;14.13;nan;61397.91;4981163;28;20174;-67
2023/05/14 04:55:42;;;;;;;6.30;3.00;;;;;;;14.43;nan;61148.06;4984738;28;20530;-67
2023/05/14 04:58:08;;;;;;;5.95;3.75;;;;;;;14.55;nan;61410.97;4974549;28;20573;-68
2023/05/14 05:00:33;;;;;;;5.43;2.65;;;;;;;14.36;nan;61099.03;4974902;28;20176;-68
2023/05/14 05:02:59;;;;;;;5.25;2.97;;;;;;;14.63;nan;61155.22;4973703;28;20196;-70
2023/05/14 05:05:24;;;;;;;4.13;2.83;;;;;;;14.48;nan;61102.28;4974106;28;20173;-69
2023/05/14 05:07:50;;;;;;;5.97;2.95;;;;;;;14.72;nan;61149.94;4974509;28;20212;-72
2023/05/14 05:10:15;;;;;;;4.50;3.05;;;;;;;14.81;nan;61211.53;4989460;28;20228;-71
2023/05/14 05:12:40;;;;;;;5.25;3.30;;;;;;;15.00;nan;61225.28;4974818;28;20618;-70
2023/05/14 05:15:08;;;;;;;5.40;3.08;;;;;;;15.05;nan;61207.19;4974311;28;20177;-71
2023/05/14 05:17:34;;;;;;;4.25;2.67;;;;;;;14.87;nan;61187.44;4978212;28;20174;-71
2023/05/14 05:19:59;;;;;;;4.80;3.20;;;;;;;14.91;nan;61111.66;4975666;28;20281;-70
2023/05/14 05:22:25;;;;;;;4.30;3.20;;;;;;;14.53;nan;61093.06;4981180;28;20185;-70
2023/05/14 05:24:50;;;;;;;4.57;3.03;;;;;;;14.64;nan;61344.03;4989733;28;20178;-69
2023/05/14 05:27:16;;;;;;;4.65;2.80;;;;;;;14.50;nan;61102.56;4981122;28;20205;-70
2023/05/14 05:29:42;;;;;;;4.82;2.63;;;;;;;14.89;nan;61168.56;4993921;28;20184;-70
2023/05/14 05:32:08;;;;;;;4.22;3.25;;;;;;;14.69;nan;61176.84;4985271;28;20630;-70
2023/05/14 05:34:33;;;;;;;4.88;3.92;;;;;;;14.74;nan;61431.91;4996092;28;20196;-71
2023/05/14 05:36:59;;;;;;;4.63;3.05;;;;;;;14.86;nan;61201.75;4973962;28;20181;-69
2023/05/14 05:39:24;;;;;;;7.50;3.10;;;;;;;14.51;nan;61142.25;4974371;28;20254;-72
2023/05/14 05:41:50;;;;;;;4.70;3.10;;;;;;;14.69;nan;61182.56;4974173;28;20173;-70
2023/05/14 05:44:15;;;;;;;4.47;2.92;;;;;;;14.83;nan;61198.38;4974366;28;20177;-70
2023/05/14 05:46:40;;;;;;;6.00;3.38;;;;;;;15.20;nan;61208.69;4973945;28;20272;-70
2023/05/14 05:49:06;;;;;;;5.80;3.50;;;;;;;15.03;nan;61190.06;4973862;28;20197;-73
2023/05/14 05:51:32;;;;;;;5.45;3.45;;;;;;;15.20;nan;61167.53;4973599;28;20260;-69
2023/05/14 05:53:57;;;;;;;4.70;3.08;;;;;;;15.29;nan;61251.75;4978079;28;20184;-71
2023/05/14 05:56:23;;;;;;;4.40;2.95;;;;;;;15.09;nan;61213.72;4974029;28;20183;-72
2023/05/14 05:58:48;;;;;;;5.90;3.30;;;;;;;15.35;nan;61230.22;4973789;28;20208;-70
2023/05/14 06:01:13;;;;;;;6.13;3.40;;;;;;;15.06;nan;61202.63;4974206;28;20158;-71
2023/05/14 06:03:39;;;;;;;6.00;3.35;;;;;;;15.10;nan;61232.88;4973985;28;20184;-72
2023/05/14 06:06:05;;;;;;;4.53;3.40;;;;;;;15.26;nan;61227.78;4973761;28;20193;-71
2023/05/14 06:08:30;;;;;;;7.40;3.00;;;;;;;15.00;nan;61273.59;4974044;28;20176;-71
2023/05/14 06:10:56;;;;;;;4.47;3.20;;;;;;;15.15;nan;61171.63;4973865;28;20228;-73
2023/05/14 06:13:21;;;;;;;6.07;3.55;;;;;;;15.27;nan;61223.75;4988224;28;21424;-70
2023/05/14 06:15:47;;;;;;;4.28;3.13;;;;;;;15.11;nan;61241.72;4973735;28;20184;-69
2023/05/14 06:18:12;;;;;;;5.90;3.40;;;;;;;15.09;nan;61216.28;4973933;28;20168;-71
2023/05/14 06:20:38;;;;;;;6.03;3.55;;;;;;;14.61;nan;61198.66;4988776;28;20184;-68
2023/05/14 06:23:04;;;;;;;5.95;3.42;;;;;;;14.81;nan;61175.53;4976822;28;20169;-72
2023/05/14 06:25:30;;;;;;;5.63;2.85;;;;;;;14.78;nan;61207.56;4975828;28;20692;-71
2023/05/14 06:27:55;;;;;;;5.38;3.65;;;;;;;14.75;nan;61194.47;4973424;28;20376;-69
2023/05/14 06:30:21;;;;;;;4.47;3.20;;;;;;;14.77;nan;61217.28;4975881;28;20189;-71
2023/05/14 06:32:46;;;;;;;5.43;3.50;;;;;;;14.92;nan;61161.66;4973494;28;20205;-71
2023/05/14 06:35:11;;;;;;;4.30;3.20;;;;;;;14.57;nan;61148.44;4973330;28;20216;-72
2023/05/14 06:37:37;;;;;;;4.95;3.38;;;;;;;14.84;nan;61191.75;4973216;28;20269;-70
2023/05/14 06:40:02;;;;;;;4.80;3.50;;;;;;;14.58;nan;61182.97;4973657;28;20208;-73
2023/05/14 06:42:28;;;;;;;4.70;3.30;;;;;;;14.31;nan;61178.19;4972865;28;20169;-72
2023/05/14 06:44:53;;;;;;;6.05;3.58;;;;;;;14.57;nan;61169.56;4972039;28;20687;-71
2023/05/14 06:47:19;;;;;;;8.05;3.85;;;;;;;14.32;nan;61118.22;4973209;28;20213;-70
2023/05/14 06:49:44;;;;;;;6.47;3.85;;;;;;;14.43;nan;61112.63;4973004;28;20964;-72
2023/05/14 06:52:10;;;;;;;4.18;3.17;;;;;;;14.41;nan;61120.69;4973265;28;20173;-71
2023/05/14 06:54:35;;;;;;;5.38;3.55;;;;;;;14.30;nan;61169.34;4972725;28;20222;-71
2023/05/14 06:57:00;;;;;;;7.03;4.20;;;;;;;14.32;nan;61071.97;4971904;28;20182;-69
2023/05/14 06:59:26;;;;;;;6.25;3.80;;;;;;;14.09;nan;61043.47;4972638;28;20173;-70
2023/05/14 07:01:51;;;;;;;7.07;4.13;;;;;;;14.10;nan;60955.25;4973059;28;20553;-71
2023/05/14 07:04:16;;;;;;;5.05;3.67;;;;;;;13.87;nan;60916.53;4972587;28;20255;-71
2023/05/14 07:06:42;;;;;;;5.85;3.67;;;;;;;13.89;nan;60805.81;4972635;28;20698;-71
2023/05/14 07:09:07;;;;;;;7.53;4.38;;;;;;;13.75;nan;60830.59;4974640;28;20188;-69
2023/05/14 07:11:33;;;;;;;7.88;4.30;;;;;;;13.67;nan;60861.25;4971885;28;20649;-70
2023/05/14 07:13:59;;;;;;;7.22;4.55;;;;;;;13.94;nan;60887.91;4972335;28;20177;-69
2023/05/14 07:16:25;;;;;;;9.25;4.22;;;;;;;13.85;nan;60891.19;4972934;28;20193;-70
2023/05/14 07:18:50;;;;;;;6.63;4.07;;;;;;;13.52;nan;60682.16;4991636;28;20238;-69
2023/05/14 07:21:15;;;;;;;6.22;4.30;;;;;;;13.82;nan;60371.84;4992105;28;20226;-70
2023/05/14 07:23:41;;;;;;;5.50;3.83;;;;;;;13.81;nan;59962.59;4992088;28;20652;-69
2023/05/14 07:26:07;;;;;;;8.07;4.60;;;;;;;13.71;nan;59956.66;4992877;28;20196;-68
2023/05/14 07:28:33;;;;;;;10.82;4.53;;;;;;;13.92;nan;59789.97;4992131;28;20204;-72
2023/05/14 07:30:58;;;;;;;7.72;4.18;;;;;;;13.59;nan;59874.63;4991565;28;20254;-70
2023/05/14 07:33:24;;;;;;;8.82;5.50;;;;;;;13.94;nan;59917.41;4991488;28;20664;-69
2023/05/14 07:35:50;;;;;;;8.98;4.90;;;;;;;13.79;nan;59518.97;5006644;28;20683;-70
2023/05/14 07:38:15;;;;;;;7.18;4.38;;;;;;;13.89;nan;58574.84;4991834;28;20656;-71
2023/05/14 07:40:42;;;;;;;8.55;5.38;;;;;;;13.89;nan;58469.63;4991579;28;20176;-71
2023/05/14 07:43:07;;;;;;;5.95;4.32;;;;;;;13.69;nan;58192.03;4989137;28;20227;-70
2023/05/14 07:45:35;;;;;;;8.43;5.10;;;;;;;13.87;nan;57661.97;4972738;28;20209;-71
2023/05/14 07:48:00;;;;;;;8.32;4.38;;;;;;;13.59;nan;57976.66;4972165;28;20258;-70
2023/05/14 07:50:25;;;;;;;9.38;5.18;;;;;;;13.70;nan;57057.66;4972246;28;20652;-70
2023/05/14 07:52:51;;;;;;;6.90;4.97;;;;;;;14.13;nan;55878.59;4972050;28;20185;-72
2023/05/14 07:55:16;;;;;;;12.05;5.25;;;;;;;13.46;nan;59459.53;4972057;28;20185;-71
2023/05/14 07:57:41;;;;;;;10.05;4.90;;;;;;;13.40;nan;59068.31;4971955;28;20213;-70
2023/05/14 08:00:09;;;;;;;9.02;4.57;;;;;;;13.16;nan;58484.44;4972672;28;20182;-70
2023/05/14 08:02:34;;;;;;;9.18;5.07;;;;;;;12.38;nan;51844.44;4987420;28;20669;-69
2023/05/14 08:05:00;;;;;;;8.82;5.57;;;;;;;12.32;nan;19910.19;4972321;28;20259;-70
2023/05/14 08:07:28;;;;;;;10.23;5.43;;;;;;;12.22;nan;1823.28;4972021;28;20328;-70
2023/05/14 08:09:53;;;;;;;12.10;4.88;;;;;;;12.22;nan;-8144.06;4975377;28;20201;-69
2023/05/14 08:12:19;;;;;;;9.38;5.22;;;;;;;11.88;nan;-11670.97;4975995;28;20257;-71
2023/05/14 08:14:45;;;;;;;10.70;5.47;;;;;;;12.08;nan;-12313.66;4990831;28;20553;-70
2023/05/14 08:17:10;;;;;;;10.88;5.38;;;;;;;12.43;nan;-14240.47;4990650;28;20536;-70
2023/05/14 08:19:35;;;;;;;8.15;5.40;;;;;;;12.47;nan;-10070.97;4977926;28;20588;-71
2023/05/14 08:22:01;;;;;;;13.02;5.47;;;;;;;12.29;nan;-7823.13;4975278;28;20185;-71
2023/05/14 08:24:26;;;;;;;9.38;4.90;;;;;;;12.59;nan;-9750.53;4975053;28;20205;-70
2023/05/14 08:26:51;;;;;;;6.72;4.75;;;;;;;12.31;nan;-12315.66;4975618;28;20201;-70
2023/05/14 08:29:17;;;;;;;11.35;5.43;;;;;;;12.08;nan;-5896.28;4979152;28;20181;-70
2023/05/14 08:31:42;;;;;;;7.63;4.75;;;;;;;12.11;nan;-9427.53;4974196;28;20656;-70
2023/05/14 08:34:08;;;;;;;7.88;5.07;;;;;;;12.44;nan;-12637.47;4975682;28;20212;-70
2023/05/14 08:36:33;;;;;;;10.80;4.82;;;;;;;12.44;nan;-14881.69;4975148;28;20184;-69
2023/05/14 08:38:58;;;;;;;8.23;4.78;;;;;;;12.22;nan;-12635.50;4974861;28;20177;-70
2023/05/14 08:41:24;;;;;;;7.75;5.10;;;;;;;12.47;nan;-14561.50;4975276;28;20368;-70
2023/05/14 08:43:58;;;;;;;7.28;4.85;;;;;;;12.27;nan;-15199.94;4975195;28;20193;-70
2023/05/14 08:46:27;;;;;;;8.27;4.97;;;;;;;12.05;nan;-15196.97;4974622;28;20204;-70
2023/05/14 08:48:59;;;;;;;7.22;4.82;;;;;;;11.56;nan;-14870.34;4974927;28;20260;-69
2023/05/14 08:51:26;;;;;;;6.93;4.45;;;;;;;11.34;nan;-16146.94;4974849;28;20191;-70
2023/05/14 08:53:52;;;;;;;9.65;4.22;;;;;;;11.29;nan;-17425.06;4972869;28;20643;-69
2023/05/14 08:56:18;;;;;;;5.80;4.20;;;;;;;11.10;nan;-19019.09;4988464;28;20193;-70
2023/05/14 08:58:43;;;;;;;6.82;4.68;;;;;;;10.99;nan;-22208.72;4973546;28;20169;-69
2023/05/14 09:01:09;;;;;;;7.40;4.73;;;;;;;11.06;nan;-23805.34;4973828;28;20244;-68
2023/05/14 09:03:35;;;;;;;9.70;4.72;;;;;;;11.27;nan;-24131.72;4974696;28;20170;-70
2023/05/14 09:06:03;;;;;;;6.55;4.50;;;;;;;11.07;nan;-24124.50;4974267;28;20277;-70
2023/05/14 09:08:28;;;;;;;10.23;4.93;;;;;;;10.98;nan;-24123.69;4974792;28;20188;-71
2023/05/14 09:10:53;;;;;;;7.95;5.20;;;;;;;11.42;nan;-24136.09;4974428;28;20226;-70
2023/05/14 09:13:19;;;;;;;8.30;5.65;;;;;;;11.56;nan;-24139.75;4974717;28;20641;-70
2023/05/14 09:15:45;;;;;;;8.52;5.50;;;;;;;11.51;nan;-24138.63;4973826;28;20332;-70
2023/05/14 09:18:11;;;;;;;8.20;5.63;;;;;;;12.03;nan;-24153.00;4974105;28;20173;-69
2023/05/14 09:20:37;;;;;;;9.50;5.30;;;;;;;12.14;nan;-23515.19;4973938;28;20174;-69
2023/05/14 09:23:03;;;;;;;9.73;5.22;;;;;;;12.30;nan;-23199.94;4974843;28;20201;-69
2023/05/14 09:25:31;;;;;;;10.23;5.65;;;;;;;12.12;nan;-23514.66;4974859;28;20212;-70
2023/05/14 09:27:57;;;;;;;11.55;5.85;;;;;;;12.14;nan;-23834.78;4974958;28;20220;-69
2023/05/14 09:30:25;;;;;;;11.77;6.10;;;;;;;12.49;nan;-23524.53;4991389;28;20177;-70
2023/05/14 09:32:53;;;;;;;8.43;5.53;;;;;;;12.28;nan;-20641.75;4980357;28;20196;-70
2023/05/14 09:35:22;;;;;;;8.55;6.10;;;;;;;11.91;nan;-21911.91;4974763;28;20215;-70
2023/05/14 09:37:50;;;;;;;11.93;6.50;;;;;;;11.95;nan;-22232.53;4974873;28;20608;-71
2023/05/14 09:40:17;;;;;;;10.13;6.10;;;;;;;12.01;nan;-21914.34;4974583;28;20260;-71
2023/05/14 09:42:42;;;;;;;10.25;6.45;;;;;;;12.36;nan;-21283.34;4974775;28;20177;-70
2023/05/14 09:45:08;;;;;;;12.00;6.68;;;;;;;12.39;nan;-21603.75;4974667;28;20723;-70
2023/05/14 09:47:35;;;;;;;11.15;6.47;;;;;;;12.18;nan;-20319.81;4974362;28;20229;-71
2023/05/14 09:50:01;;;;;;;9.70;5.40;;;;;;;11.87;nan;-19673.78;4974247;28;20172;-70
2023/05/14 09:52:26;;;;;;;11.10;6.05;;;;;;;12.07;nan;-22235.28;4974256;28;20514;-70
2023/05/14 09:54:52;;;;;;;9.73;6.25;;;;;;;12.12;nan;-22556.09;4989236;28;20272;-71
2023/05/14 09:57:18;;;;;;;12.18;7.03;;;;;;;11.97;nan;-22232.78;4976330;28;20192;-70
2023/05/14 09:59:44;;;;;;;14.50;7.10;;;;;;;12.11;nan;-21916.81;4974274;28;20189;-69
2023/05/14 10:02:36;;;;;;;13.60;7.85;;;;;;;12.32;nan;-20962.50;4974266;28;20679;-71
2023/05/14 10:05:03;;;;;;;14.98;7.95;;;;;;;12.58;nan;-21608.19;4974125;28;20185;-71
2023/05/14 10:07:35;;;;;;;14.20;8.13;;;;;;;12.85;nan;-19373.72;4976534;28;20288;-70
2023/05/14 10:10:02;;;;;;;14.27;8.02;;;;;;;12.58;nan;-20648.47;4988768;28;20276;-71
2023/05/14 10:12:35;;;;;;;11.27;6.57;;;;;;;12.44;nan;-20005.34;4974120;28;20176;-70
2023/05/14 10:15:05;;;;;;;10.95;6.72;;;;;;;12.33;nan;-19043.19;4974340;28;20186;-71
2023/05/14 10:17:33;;;;;;;10.60;6.30;;;;;;;11.93;nan;-21273.28;4974186;28;20204;-71
2023/05/14 10:20:01;;;;;;;12.18;6.38;;;;;;;12.06;nan;-21276.19;4973910;28;20181;-71
2023/05/14 10:22:32;;;;;;;11.20;6.65;;;;;;;12.20;nan;-22238.53;4973929;28;20277;-71
2023/05/14 10:24:58;;;;;;;8.90;5.68;;;;;;;11.94;nan;-21593.09;4974074;28;20184;-71
2023/05/14 10:27:24;;;;;;;12.40;7.80;;;;;;;12.06;nan;-20956.53;4988336;28;20205;-71
2023/05/14 10:29:54;;;;;;;12.32;7.35;;;;;;;11.59;nan;-20945.84;4988847;28;20232;-70
2023/05/14 10:32:23;;;;;;;14.15;6.90;;;;;;;11.61;nan;-20946.31;4973050;28;20196;-70
2023/05/14 10:34:49;;;;;;;11.40;6.60;;;;;;;11.73;nan;-21588.16;4978272;28;20181;-70
2023/05/14 10:37:16;;;;;;;13.00;6.50;;;;;;;11.60;nan;-20307.25;4973888;28;20173;-70
2023/05/14 10:39:48;;;;;;;11.88;6.90;;;;;;;11.84;nan;-22229.66;4988784;28;20189;-71
2023/05/14 10:42:17;;;;;;;16.73;7.40;;;;;;;11.84;nan;-21910.19;4974243;28;20201;-69
2023/05/14 10:44:54;;;;;;;11.80;6.57;;;;;;;11.76;nan;-21588.88;4973390;28;20227;-71
2023/05/14 10:47:20;;;;;;;10.90;6.35;;;;;;;11.80;nan;-20950.69;4973445;28;20208;-70
2023/05/14 10:49:49;;;;;;;9.95;6.68;;;;;;;12.27;nan;-21281.13;4973154;28;20660;-70
2023/05/14 10:52:19;;;;;;;12.15;6.40;;;;;;;12.05;nan;-21915.34;4973100;28;20174;-70
2023/05/14 10:54:49;;;;;;;9.88;6.75;;;;;;;12.43;nan;-19685.13;4973368;28;20166;-70
2023/05/14 10:57:16;;;;;;;14.35;6.32;;;;;;;13.06;nan;-20018.44;4987912;28;20173;-69
2023/05/14 10:59:42;;;;;;;10.40;6.25;;;;;;;13.45;nan;-20347.13;4972911;28;20181;-69
2023/05/14 11:02:31;;;;;;;11.05;6.68;;;;;;;13.98;nan;-15222.59;4973059;28;20192;-69
2023/05/14 11:05:07;;;;;;;9.50;5.97;;;;;;;13.84;nan;-10399.44;4972798;28;20534;-69
2023/05/14 11:07:43;;;;;;;10.68;6.75;;;;;;;14.03;nan;-6537.13;4973100;28;20263;-70
2023/05/14 11:10:09;;;;;;;10.77;5.97;;;;;;;14.79;nan;-6859.03;4988100;28;20236;-70
2023/05/14 11:12:42;;;;;;;9.73;6.10;;;;;;;14.59;nan;-1050.69;4972936;28;20204;-70
2023/05/14 11:15:10;;;;;;;12.82;6.82;;;;;;;15.21;nan;-1044.69;4972862;28;20268;-69
2023/05/14 11:17:39;;;;;;;10.80;5.93;;;;;;;14.91;nan;-6213.78;4973074;28;20177;-70
2023/05/14 11:20:06;;;;;;;10.02;6.78;;;;;;;15.13;nan;1218.03;4972984;28;20260;-70
2023/05/14 11:22:32;;;;;;;12.02;6.40;;;;;;;15.06;nan;-399.72;4973191;28;20173;-70
2023/05/14 11:24:57;;;;;;;11.57;6.70;;;;;;;15.51;nan;9649.63;4972904;28;20181;-71
2023/05/14 11:27:23;;;;;;;11.52;6.85;;;;;;;15.43;nan;12893.66;4972770;28;20247;-70
2023/05/14 11:29:49;;;;;;;9.85;6.53;;;;;;;15.14;nan;2836.06;4972823;28;20200;-70
2023/05/14 11:32:16;;;;;;;11.35;6.95;;;;;;;15.27;nan;1867.09;4972981;28;20233;-69
2023/05/14 11:34:45;;;;;;;12.02;6.65;;;;;;;15.13;nan;-5245.13;4973125;28;20174;-70
2023/05/14 11:37:13;;;;;;;12.90;7.45;;;;;;;15.07;nan;-4599.63;4973314;28;20177;-70
2023/05/14 11:39:44;;;;;;;11.50;6.72;;;;;;;15.28;nan;-3306.56;4972819;28;20178;-70
2023/05/14 11:42:12;;;;;;;12.57;7.35;;;;;;;15.24;nan;-4598.94;4972778;28;20192;-71